Terminal Aerodrome Forecast
Issued by NWS

Home | Current Version | Previous Version | Text Only | Print | Product List | Glossary On
Versions: 1 2 3 4 5 6 7 8 9 10 11 12 13 14 15 16 17 18 19 20 21 22 23 24 25 26 27 28 29 30 31 32 33
000
FTPA31 PHFO 041500 AAA
TAFMKK
TAF AMD
PHMK 041501Z 0415/0512 36012KT P6SM SHRA SCT010 BKN025 BKN040
      TEMPO 0415/0417 5SM -SHRA BKN010 OVC025
     FM041900 01012G20KT P6SM VCSH SCT015 BKN030 OVC120
     FM050400 01010KT P6SM VCSH SCT015 BKN030 BKN100=

USA.gov is the U.S. government's official web portal to all federal, state and local government web resources and services.